Wetterdaten: Woche 06.01.20 - 12.01.20 (KW2)
Datum Zeit Temp. A. Feuchte A. Luftdruck Regen Wind Richtung Taupunkt Windchill Windben
06.01.2020 00:00 -0,1 C 72 % 1036,0 hPa 0,0 l/m 0,0 km/h N -4,5 C -0,1 C 0,0 km/h
06.01.2020 01:00 -0,2 C 75 % 1035,6 hPa 0,0 l/m 1,6 km/h N -4,0 C -0,2 C 8,0 km/h
06.01.2020 02:00 -0,5 C 73 % 1035,0 hPa 0,0 l/m 0,0 km/h N -4,7 C -0,5 C 0,8 km/h
06.01.2020 03:00 -1,8 C 76 % 1034,6 hPa 0,0 l/m 0,0 km/h N -5,5 C -1,8 C 0,0 km/h
06.01.2020 04:00 -2,8 C 78 % 1034,3 hPa 0,0 l/m 0,0 km/h N -6,2 C -2,8 C 0,0 km/h
06.01.2020 05:00 -3,3 C 80 % 1034,3 hPa 0,0 l/m 0,0 km/h N -6,3 C -3,3 C 0,0 km/h
06.01.2020 06:00 -2,6 C 81 % 1034,6 hPa 0,0 l/m 0,0 km/h N -5,4 C -2,6 C 0,0 km/h
06.01.2020 07:00 -2,2 C 81 % 1034,6 hPa 0,0 l/m 0,0 km/h N -5,0 C -2,2 C 0,0 km/h
06.01.2020 08:00 -1,8 C 82 % 1034,5 hPa 0,0 l/m 0,0 km/h N -4,6 C -1,8 C 0,0 km/h
06.01.2020 09:00 -1,4 C 82 % 1034,2 hPa 0,0 l/m 0,0 km/h N -4,0 C -1,4 C 0,0 km/h
06.01.2020 10:00 -0,3 C 82 % 1033,6 hPa 0,0 l/m 0,0 km/h N -3,0 C -0,3 C 0,0 km/h
06.01.2020 11:00 1,1 C 81 % 1032,9 hPa 0,0 l/m 0,0 km/h N -1,9 C 1,1 C 3,2 km/h
06.01.2020 12:00 2,6 C 72 % 1031,9 hPa 0,0 l/m 0,0 km/h N -1,9 C 2,6 C 0,8 km/h
06.01.2020 13:00 3,6 C 66 % 1030,8 hPa 0,0 l/m 0,0 km/h N -2,2 C 3,6 C 8,9 km/h
06.01.2020 14:00 4,1 C 65 % 1030,3 hPa 0,0 l/m 0,0 km/h N -1,9 C 4,1 C 4,0 km/h
06.01.2020 15:00 4,3 C 64 % 1029,9 hPa 0,0 l/m 0,0 km/h N -2,0 C 4,3 C 1,6 km/h
06.01.2020 16:00 2,9 C 66 % 1029,6 hPa 0,0 l/m 0,0 km/h N -2,9 C 2,9 C 0,0 km/h
06.01.2020 17:00 0,7 C 69 % 1029,6 hPa 0,0 l/m 0,0 km/h N -4,4 C 0,7 C 0,0 km/h
06.01.2020 18:00 -1,3 C 74 % 1029,6 hPa 0,0 l/m 0,0 km/h N -5,4 C -1,3 C 0,0 km/h
06.01.2020 19:00 -2,5 C 78 % 1029,5 hPa 0,0 l/m 0,0 km/h N -5,7 C -2,5 C 0,0 km/h
06.01.2020 20:00 -3,2 C 81 % 1029,0 hPa 0,0 l/m 0,0 km/h N -6,1 C -3,2 C 0,0 km/h
06.01.2020 21:00 -3,8 C 81 % 1028,6 hPa 0,0 l/m 0,0 km/h N -6,6 C -3,8 C 0,0 km/h
06.01.2020 22:00 -4,3 C 82 % 1028,3 hPa 0,0 l/m 0,0 km/h N -6,9 C -4,3 C 0,0 km/h
06.01.2020 23:00 -4,8 C 82 % 1028,0 hPa 0,0 l/m 0,0 km/h N -7,3 C -4,8 C 0,0 km/h
07.01.2020 00:00 -5,2 C 86 % 1027,8 hPa 0,0 l/m 0,0 km/h N -7,2 C -5,2 C 0,0 km/h
07.01.2020 01:00 -5,8 C 82 % 1027,4 hPa 0,0 l/m 0,0 km/h N -8,3 C -5,8 C 0,0 km/h
07.01.2020 02:00 -6,2 C 82 % 1027,2 hPa 0,0 l/m 0,0 km/h N -8,8 C -6,2 C 0,0 km/h
07.01.2020 03:00 -6,4 C 82 % 1026,7 hPa 0,0 l/m 0,0 km/h N -9,0 C -6,4 C 0,0 km/h
07.01.2020 04:00 -6,8 C 82 % 1026,3 hPa 0,0 l/m 0,0 km/h N -9,3 C -6,8 C 0,0 km/h
07.01.2020 05:00 -6,9 C 82 % 1026,4 hPa 0,0 l/m 0,0 km/h N -9,5 C -6,9 C 0,0 km/h
07.01.2020 06:00 -7,1 C 82 % 1026,8 hPa 0,0 l/m 0,0 km/h N -9,6 C -7,1 C 0,0 km/h
07.01.2020 07:00 -7,1 C 82 % 1026,9 hPa 0,0 l/m 0,0 km/h N -9,7 C -7,1 C 0,0 km/h
07.01.2020 08:00 -6,9 C 82 % 1027,9 hPa 0,0 l/m 0,0 km/h N -9,4 C -6,9 C 0,0 km/h
07.01.2020 09:00 -6,0 C 82 % 1028,3 hPa 0,0 l/m 0,0 km/h N -8,6 C -6,0 C 0,0 km/h
07.01.2020 10:00 -4,2 C 82 % 1028,7 hPa 0,0 l/m 0,0 km/h N -6,8 C -4,2 C 0,4 km/h
07.01.2020 11:00 -2,8 C 82 % 1028,4 hPa 0,0 l/m 0,0 km/h N -5,5 C -2,8 C 0,0 km/h
07.01.2020 12:00 -1,6 C 82 % 1027,9 hPa 0,0 l/m 0,1 km/h N -4,3 C -1,6 C 0,8 km/h
07.01.2020 13:00 0,1 C 82 % 1027,6 hPa 0,0 l/m 1,0 km/h N -2,6 C 0,1 C 10,1 km/h
07.01.2020 14:00 6,0 C 74 % 1027,8 hPa 0,0 l/m 12,0 km/h N 1,7 C 2,0 C 35,4 km/h
07.01.2020 15:00 5,5 C 73 % 1028,6 hPa 0,0 l/m 13,9 km/h N 1,0 C 0,5 C 36,2 km/h
07.01.2020 16:00 4,8 C 74 % 1029,7 hPa 0,0 l/m 7,8 km/h N 0,5 C 3,0 C 25,7 km/h
07.01.2020 17:00 4,6 C 74 % 1030,4 hPa 0,0 l/m 2,7 km/h N 0,2 C 4,6 C 13,7 km/h
07.01.2020 18:00 4,5 C 77 % 1030,7 hPa 0,0 l/m 4,9 km/h N 0,8 C 4,5 C 21,3 km/h
07.01.2020 19:00 4,0 C 79 % 1031,1 hPa 0,0 l/m 1,6 km/h N 0,7 C 4,0 C 10,9 km/h
07.01.2020 20:00 3,8 C 80 % 1031,4 hPa 0,0 l/m 0,9 km/h N 0,7 C 3,8 C 8,0 km/h
07.01.2020 21:00 3,7 C 81 % 1031,6 hPa 0,0 l/m 0,3 km/h N 0,7 C 3,7 C 5,2 km/h
07.01.2020 22:00 3,9 C 81 % 1031,6 hPa 0,0 l/m 0,3 km/h N 0,9 C 3,9 C 6,4 km/h
07.01.2020 23:00 3,9 C 81 % 1031,8 hPa 0,0 l/m 0,1 km/h N 1,0 C 3,9 C 2,8 km/h
08.01.2020 00:00 4,2 C 81 % 1031,6 hPa 0,0 l/m 0,3 km/h N 1,3 C 4,2 C 4,4 km/h
08.01.2020 01:00 4,3 C 81 % 1031,3 hPa 0,0 l/m 0,1 km/h N 1,2 C 4,3 C 4,0 km/h
08.01.2020 02:00 4,3 C 81 % 1031,6 hPa 0,0 l/m 0,1 km/h N 1,2 C 4,3 C 2,8 km/h
08.01.2020 03:00 4,2 C 81 % 1031,5 hPa 0,0 l/m 0,0 km/h N 1,2 C 4,2 C 0,0 km/h
08.01.2020 04:00 3,6 C 81 % 1031,3 hPa 0,0 l/m 0,0 km/h N 0,7 C 3,6 C 0,0 km/h
08.01.2020 05:00 2,8 C 82 % 1031,2 hPa 0,0 l/m 0,0 km/h N -0,0 C 2,8 C 0,0 km/h
08.01.2020 06:00 2,1 C 82 % 1031,1 hPa 0,0 l/m 0,0 km/h N -0,6 C 2,1 C 0,0 km/h
08.01.2020 07:00 0,2 C 82 % 1031,4 hPa 0,0 l/m 0,0 km/h N -2,5 C 0,2 C 0,0 km/h
08.01.2020 08:00 -1,0 C 82 % 1031,9 hPa 0,0 l/m 0,0 km/h N -3,7 C -1,0 C 0,0 km/h
08.01.2020 09:00 -0,3 C 82 % 1031,6 hPa 0,0 l/m 0,0 km/h N -3,1 C -0,3 C 0,8 km/h
08.01.2020 10:00 3,4 C 81 % 1031,1 hPa 0,0 l/m 0,2 km/h N 0,4 C 3,4 C 4,4 km/h
08.01.2020 11:00 5,6 C 81 % 1030,7 hPa 0,0 l/m 0,1 km/h N 2,6 C 5,6 C 4,4 km/h
08.01.2020 12:00 7,0 C 74 % 1029,8 hPa 0,0 l/m 0,1 km/h N 2,6 C 7,0 C 3,6 km/h
08.01.2020 13:00 7,6 C 70 % 1029,2 hPa 0,0 l/m 0,1 km/h N 2,5 C 7,6 C 2,8 km/h
08.01.2020 14:00 8,0 C 68 % 1028,8 hPa 0,0 l/m 0,0 km/h N 2,5 C 8,0 C 0,0 km/h
08.01.2020 15:00 8,2 C 65 % 1028,9 hPa 0,0 l/m 0,0 km/h N 2,1 C 8,2 C 0,4 km/h
08.01.2020 16:00 5,9 C 67 % 1029,3 hPa 0,0 l/m 0,0 km/h N 0,3 C 5,9 C 0,0 km/h
08.01.2020 17:00 3,2 C 74 % 1030,0 hPa 0,0 l/m 0,0 km/h N -1,0 C 3,2 C 0,0 km/h
08.01.2020 18:00 2,8 C 79 % 1029,8 hPa 0,0 l/m 0,0 km/h N -0,5 C 2,8 C 0,0 km/h
08.01.2020 19:00 2,7 C 80 % 1029,8 hPa 0,0 l/m 0,0 km/h N -0,5 C 2,7 C 0,0 km/h
08.01.2020 20:00 1,7 C 80 % 1029,8 hPa 0,0 l/m 0,0 km/h N -1,4 C 1,7 C 0,0 km/h
08.01.2020 21:00 1,6 C 81 % 1029,3 hPa 0,0 l/m 0,0 km/h N -1,3 C 1,6 C 0,0 km/h
08.01.2020 22:00 1,5 C 82 % 1029,0 hPa 0,3 l/m 0,0 km/h N -1,3 C 1,5 C 0,0 km/h
08.01.2020 23:00 1,4 C 82 % 1028,9 hPa 0,5 l/m 0,0 km/h N -1,4 C 1,4 C 0,0 km/h
09.01.2020 00:00 1,4 C 82 % 1028,6 hPa 0,0 l/m 0,0 km/h N -1,3 C 1,4 C 0,4 km/h
09.01.2020 01:00 1,4 C 82 % 1028,4 hPa 0,0 l/m 0,0 km/h N -1,3 C 1,4 C 0,0 km/h
09.01.2020 02:00 1,4 C 82 % 1028,3 hPa 0,0 l/m 0,0 km/h N -1,3 C 1,4 C 0,0 km/h
09.01.2020 03:00 1,4 C 82 % 1027,8 hPa 0,0 l/m 0,0 km/h N -1,3 C 1,4 C 0,8 km/h
09.01.2020 04:00 1,7 C 81 % 1027,4 hPa 0,0 l/m 0,0 km/h N -1,2 C 1,7 C 0,0 km/h
09.01.2020 05:00 1,7 C 81 % 1026,8 hPa 0,0 l/m 0,0 km/h N -1,2 C 1,7 C 0,0 km/h
09.01.2020 06:00 1,6 C 81 % 1026,7 hPa 0,0 l/m 0,1 km/h N -1,2 C 1,6 C 2,0 km/h
09.01.2020 07:00 1,3 C 82 % 1026,5 hPa 0,0 l/m 0,0 km/h N -1,4 C 1,3 C 0,0 km/h
09.01.2020 08:00 1,3 C 82 % 1026,6 hPa 0,0 l/m 0,0 km/h N -1,4 C 1,3 C 0,4 km/h
09.01.2020 09:00 1,6 C 81 % 1026,5 hPa 0,0 l/m 0,0 km/h N -1,3 C 1,6 C 0,0 km/h
09.01.2020 10:00 2,0 C 82 % 1026,6 hPa 0,0 l/m 0,0 km/h N -0,7 C 2,0 C 0,0 km/h
09.01.2020 11:00 2,6 C 82 % 1025,9 hPa 0,0 l/m 0,0 km/h N -0,3 C 2,6 C 0,0 km/h
09.01.2020 12:00 3,1 C 82 % 1025,0 hPa 0,0 l/m 0,0 km/h N 0,4 C 3,1 C 0,4 km/h
09.01.2020 13:00 3,5 C 82 % 1024,1 hPa 0,0 l/m 0,3 km/h N 0,7 C 3,5 C 2,0 km/h
09.01.2020 14:00 3,9 C 82 % 1023,4 hPa 0,3 l/m 0,0 km/h N 1,1 C 3,9 C 0,0 km/h
09.01.2020 15:00 3,8 C 81 % 1022,8 hPa 0,0 l/m 0,0 km/h N 0,8 C 3,8 C 0,0 km/h
09.01.2020 16:00 3,3 C 81 % 1022,7 hPa 0,0 l/m 0,0 km/h N 0,4 C 3,3 C 1,6 km/h
09.01.2020 17:00 2,7 C 81 % 1022,6 hPa 0,0 l/m 0,0 km/h N -0,2 C 2,7 C 0,0 km/h
09.01.2020 18:00 1,8 C 82 % 1022,7 hPa 0,0 l/m 0,0 km/h N -1,0 C 1,8 C 0,0 km/h
09.01.2020 19:00 0,8 C 82 % 1022,5 hPa 0,0 l/m 0,0 km/h N -1,9 C 0,8 C 0,0 km/h
09.01.2020 20:00 0,0 C 82 % 1022,0 hPa 0,0 l/m 0,0 km/h N -2,7 C 0,0 C 0,0 km/h
09.01.2020 21:00 -0,6 C 82 % 1021,8 hPa 0,0 l/m 0,0 km/h N -3,3 C -0,6 C 0,0 km/h
09.01.2020 22:00 -1,0 C 83 % 1021,7 hPa 0,0 l/m 0,0 km/h N -3,6 C -1,0 C 0,0 km/h
09.01.2020 23:00 -1,5 C 83 % 1021,5 hPa 0,0 l/m 0,0 km/h N -4,0 C -1,5 C 0,0 km/h
10.01.2020 00:00 -1,7 C 83 % 1021,0 hPa 0,0 l/m 0,0 km/h N -4,2 C -1,7 C 0,0 km/h
10.01.2020 01:00 -1,4 C 82 % 1020,7 hPa 0,0 l/m 0,0 km/h N -4,0 C -1,4 C 0,0 km/h
10.01.2020 02:00 -0,8 C 82 % 1020,6 hPa 0,0 l/m 0,0 km/h N -3,5 C -0,8 C 0,0 km/h
10.01.2020 03:00 -0,7 C 82 % 1020,5 hPa 0,0 l/m 0,0 km/h N -3,4 C -0,7 C 0,0 km/h
10.01.2020 04:00 -0,9 C 82 % 1020,6 hPa 0,0 l/m 0,0 km/h N -3,6 C -0,9 C 0,0 km/h
10.01.2020 05:00 -0,9 C 82 % 1020,5 hPa 0,0 l/m 0,0 km/h N -3,6 C -0,9 C 0,0 km/h
10.01.2020 06:00 -0,8 C 82 % 1020,8 hPa 0,0 l/m 0,0 km/h N -3,5 C -0,8 C 0,0 km/h
10.01.2020 07:00 -0,9 C 82 % 1021,4 hPa 0,0 l/m 0,0 km/h N -3,6 C -0,9 C 0,0 km/h
10.01.2020 08:00 -0,9 C 82 % 1022,1 hPa 0,0 l/m 0,0 km/h N -3,6 C -0,9 C 0,0 km/h
10.01.2020 09:00 -0,6 C 82 % 1022,3 hPa 0,0 l/m 0,0 km/h N -3,3 C -0,6 C 0,0 km/h
10.01.2020 10:00 0,0 C 82 % 1022,5 hPa 0,0 l/m 0,0 km/h N -2,7 C 0,0 C 0,0 km/h
10.01.2020 11:00 0,3 C 82 % 1022,3 hPa 0,0 l/m 0,0 km/h N -2,4 C 0,3 C 0,0 km/h
10.01.2020 12:00 0,6 C 82 % 1022,3 hPa 0,0 l/m 0,0 km/h N -2,2 C 0,6 C 0,4 km/h
10.01.2020 13:00 0,6 C 82 % 1022,5 hPa 0,0 l/m 0,1 km/h N -2,1 C 0,6 C 4,0 km/h
10.01.2020 14:00 0,6 C 82 % 1022,9 hPa 0,0 l/m 0,0 km/h N -2,1 C 0,6 C 0,8 km/h
10.01.2020 15:00 0,8 C 82 % 1023,2 hPa 0,0 l/m 0,1 km/h N -2,0 C 0,8 C 1,6 km/h
10.01.2020 16:00 0,3 C 82 % 1023,3 hPa 0,0 l/m 0,0 km/h N -2,4 C 0,3 C 1,2 km/h
10.01.2020 17:00 -0,1 C 82 % 1023,9 hPa 0,0 l/m 0,0 km/h N -2,7 C -0,1 C 0,0 km/h
10.01.2020 18:00 -0,2 C 82 % 1024,3 hPa 0,0 l/m 0,0 km/h N -2,9 C -0,2 C 0,0 km/h
10.01.2020 19:00 -0,1 C 82 % 1024,6 hPa 0,0 l/m 0,0 km/h N -2,8 C -0,1 C 0,0 km/h
10.01.2020 20:00 -0,1 C 82 % 1024,7 hPa 0,0 l/m 0,0 km/h N -2,8 C -0,1 C 0,4 km/h
10.01.2020 21:00 -0,0 C 82 % 1025,1 hPa 0,0 l/m 0,0 km/h N -2,7 C -0,0 C 0,0 km/h
10.01.2020 22:00 -0,3 C 82 % 1025,7 hPa 0,0 l/m 0,0 km/h N -2,9 C -0,3 C 0,4 km/h
10.01.2020 23:00 -0,7 C 82 % 1025,5 hPa 0,0 l/m 0,1 km/h N -3,4 C -0,7 C 2,8 km/h
11.01.2020 00:00 -1,0 C 82 % 1025,8 hPa 0,0 l/m 0,1 km/h N -3,7 C -1,0 C 3,6 km/h
11.01.2020 01:00 0,1 C 83 % 1025,9 hPa 0,0 l/m 1,2 km/h N -2,5 C 0,1 C 8,4 km/h
11.01.2020 02:00 7,8 C 81 % 1026,0 hPa 0,0 l/m 8,5 km/h N 4,6 C 6,3 C 23,7 km/h
11.01.2020 03:00 9,1 C 73 % 1026,1 hPa 0,0 l/m 8,3 km/h N 4,5 C 7,8 C 22,9 km/h
11.01.2020 04:00 9,2 C 72 % 1026,4 hPa 0,0 l/m 7,3 km/h N 4,3 C 8,3 C 25,8 km/h
11.01.2020 05:00 8,4 C 73 % 1027,4 hPa 0,0 l/m 4,4 km/h N 3,9 C 8,4 C 18,1 km/h
11.01.2020 06:00 7,8 C 75 % 1028,1 hPa 0,0 l/m 4,2 km/h N 3,6 C 7,8 C 20,1 km/h
11.01.2020 07:00 7,8 C 73 % 1028,9 hPa 0,0 l/m 3,8 km/h N 3,2 C 7,8 C 16,5 km/h
11.01.2020 08:00 7,0 C 77 % 1030,3 hPa 0,0 l/m 3,9 km/h N 3,2 C 6,8 C 16,9 km/h
11.01.2020 09:00 6,2 C 79 % 1031,3 hPa 0,0 l/m 1,8 km/h N 2,9 C 6,2 C 12,5 km/h
11.01.2020 10:00 6,5 C 75 % 1031,6 hPa 0,0 l/m 3,2 km/h N 2,4 C 6,5 C 16,1 km/h
11.01.2020 11:00 6,8 C 71 % 1031,6 hPa 0,0 l/m 6,0 km/h N 1,9 C 6,6 C 21,7 km/h
11.01.2020 12:00 6,8 C 71 % 1031,6 hPa 0,0 l/m 4,4 km/h N 1,9 C 6,8 C 19,3 km/h
11.01.2020 13:00 7,0 C 66 % 1031,2 hPa 0,0 l/m 6,1 km/h N 1,1 C 6,8 C 22,9 km/h
11.01.2020 14:00 6,7 C 65 % 1031,3 hPa 0,0 l/m 4,2 km/h N 0,6 C 6,7 C 16,5 km/h
11.01.2020 15:00 6,3 C 63 % 1031,7 hPa 0,0 l/m 3,5 km/h N -0,1 C 6,3 C 16,5 km/h
11.01.2020 16:00 5,5 C 64 % 1032,0 hPa 0,0 l/m 1,4 km/h N -0,8 C 5,5 C 10,5 km/h
11.01.2020 17:00 4,2 C 66 % 1032,3 hPa 0,0 l/m 0,0 km/h N -1,6 C 4,2 C 0,0 km/h
11.01.2020 18:00 2,3 C 73 % 1032,3 hPa 0,0 l/m 0,0 km/h N -2,1 C 2,3 C 0,0 km/h
11.01.2020 19:00 1,2 C 76 % 1032,4 hPa 0,0 l/m 0,0 km/h N -2,6 C 1,2 C 0,0 km/h
11.01.2020 20:00 0,6 C 78 % 1032,6 hPa 0,0 l/m 0,0 km/h N -2,9 C 0,6 C 0,0 km/h
11.01.2020 21:00 -0,6 C 78 % 1032,9 hPa 0,0 l/m 0,0 km/h N -3,9 C -0,6 C 0,0 km/h
11.01.2020 22:00 -1,3 C 80 % 1032,8 hPa 0,0 l/m 0,0 km/h N -4,3 C -1,3 C 0,0 km/h
11.01.2020 23:00 -1,6 C 81 % 1032,8 hPa 0,0 l/m 0,0 km/h N -4,5 C -1,6 C 0,0 km/h
12.01.2020 00:00 -2,5 C 81 % 1032,2 hPa 0,0 l/m 0,0 km/h N -5,3 C -2,5 C 0,0 km/h
12.01.2020 01:00 -2,4 C 82 % 1031,9 hPa 0,0 l/m 0,0 km/h N -5,0 C -2,4 C 0,0 km/h
12.01.2020 02:00 -2,4 C 82 % 1031,7 hPa 0,0 l/m 0,0 km/h N -5,0 C -2,4 C 0,0 km/h
12.01.2020 03:00 -2,8 C 82 % 1031,5 hPa 0,0 l/m 0,0 km/h N -5,5 C -2,8 C 0,0 km/h
12.01.2020 04:00 -3,3 C 82 % 1031,1 hPa 0,0 l/m 0,0 km/h N -6,0 C -3,3 C 0,0 km/h
12.01.2020 05:00 -4,2 C 82 % 1030,9 hPa 0,0 l/m 0,0 km/h N -6,8 C -4,2 C 0,0 km/h
12.01.2020 06:00 -4,7 C 82 % 1030,8 hPa 0,0 l/m 0,0 km/h N -7,3 C -4,7 C 0,0 km/h
12.01.2020 07:00 -4,8 C 82 % 1030,4 hPa 0,0 l/m 0,0 km/h N -7,4 C -4,8 C 0,0 km/h
12.01.2020 08:00 -4,8 C 82 % 1029,9 hPa 0,0 l/m 0,0 km/h N -7,4 C -4,8 C 0,0 km/h
12.01.2020 09:00 -3,9 C 82 % 1029,8 hPa 0,0 l/m 0,0 km/h N -6,6 C -3,9 C 0,0 km/h
12.01.2020 10:00 -2,0 C 81 % 1029,7 hPa 0,0 l/m 0,0 km/h N -4,8 C -2,0 C 0,0 km/h
12.01.2020 11:00 -0,3 C 81 % 1029,3 hPa 0,0 l/m 0,0 km/h N -3,1 C -0,3 C 0,0 km/h
12.01.2020 12:00 1,4 C 81 % 1028,4 hPa 0,3 l/m 0,0 km/h N -1,5 C 1,4 C 0,0 km/h
12.01.2020 13:00 2,6 C 82 % 1027,7 hPa 0,0 l/m 0,0 km/h N -0,2 C 2,6 C 0,0 km/h
12.01.2020 14:00 4,5 C 79 % 1027,1 hPa 0,0 l/m 0,0 km/h N 1,2 C 4,5 C 0,8 km/h
12.01.2020 15:00 5,8 C 73 % 1026,9 hPa 0,0 l/m 0,0 km/h N 1,4 C 5,8 C 0,4 km/h
12.01.2020 16:00 4,4 C 72 % 1026,8 hPa 0,0 l/m 0,0 km/h N -0,1 C 4,4 C 0,0 km/h
12.01.2020 17:00 1,7 C 75 % 1027,1 hPa 0,0 l/m 0,0 km/h N -2,3 C 1,7 C 0,0 km/h
12.01.2020 18:00 -0,4 C 79 % 1027,5 hPa 0,0 l/m 0,0 km/h N -3,6 C -0,4 C 0,0 km/h
12.01.2020 19:00 -1,3 C 81 % 1027,4 hPa 0,0 l/m 0,0 km/h N -4,1 C -1,3 C 0,0 km/h
12.01.2020 20:00 -1,8 C 82 % 1027,5 hPa 0,0 l/m 0,0 km/h N -4,5 C -1,8 C 0,0 km/h
12.01.2020 21:00 -2,4 C 82 % 1027,3 hPa 0,0 l/m 0,0 km/h N -5,0 C -2,4 C 0,0 km/h
12.01.2020 22:00 -2,9 C 82 % 1027,4 hPa 0,0 l/m 0,0 km/h N -5,6 C -2,9 C 0,0 km/h
12.01.2020 23:00 -3,3 C 82 % 1027,4 hPa 0,0 l/m 0,0 km/h N -5,9 C -3,3 C 0,0 km/h
Min-Datum _ 07.01.20 06.01.20 10.01.20 - 06.01.20 - 07.01.20 07.01.20 06.01.20
_ Min-Zeit 07:15 15:00 03:00 - 00:00 - 07:00 07:00 00:00
Minimum _ -7,2 C 63 % 1020,4 hPa - 0,0 km/h - -9,7 C -7,2 C 0,0 km/h
Max-Datum _ 11.01.20 07.01.20 06.01.20 08.01.20 07.01.20 - 11.01.20 11.01.20 07.01.20
_ Max-Zeit 03:00 00:00 00:00 23:00 15:00 - 02:30 04:45 15:15
Maximum _ 9,2 C 89 % 1036,1 hPa 0,5 l/m 16,9 km/h
N
- 5,3 C 9,2 C 43,5 km/h
N
Durchschnitt _ 0,9 C 79 % 1028,3 hPa #1,3 l/m 0,7 km/h N -2,4 C 0,8 C 3,2 km/h